Old Mission, Michigan
Current Conditions -  °F | °C
As of 5:38 PM on Tuesday 21 Oct 2014 (Local Time) from KACB Reporting Station
Clear Clear  
Wind Chill: 47°   Ceiling: Unl
Heat Index: 49°   Visibility: 10mi
Dew Point: 32°   Wind: 6mph
Humidity: 51%   Direction: 350°N
Pressure: 30.21"   Gusts: NA
Location:  44.96°N, 85.49°W
Report Text: KACB 212138Z AUTO 35005KT 10SM CLR 10/00 A3021 RMK AO2 T00951001
Loading
Personal Weather Stations






























Interactive Weather Map
Tropical Storm Tracking
New forecast layout! Learn more

10-Day Weather Forecast

Advertisements
Track Severe Weather on mobile